Lords Valley, Pennsylvania
Current Conditions -  °F | °C
As of 2:53 AM on Monday 24 Nov 2014 (Local Time) from KMPO Reporting Station
Heavy Rain Heavy Rain  
Wind Chill: 41°   Ceiling: 300
Heat Index: 47°   Visibility: 1.2mi
Dew Point: 45°   Wind: 13mph
Humidity: 93%   Direction: 110°ESE
Pressure: 29.72"   Gusts: NA
Location:  41.4849°N, 75.2172°W
Report Text: KMPO 240753Z AUTO 11011KT 1 1/4SM +RA BR OVC003 08/07 A2972 RMK AO2 PRESFR SLP068 P0030 T00830072
Loading
Personal Weather Stations






























Interactive Weather Map New forecast layout! Learn more

10-Day Weather Forecast

Advertisements
Track Severe Weather on mobile